createdAt,value
2023-03-04T00:02:20.208Z,100.00
2023-03-04T00:04:49.657Z,100.00
2023-03-04T00:07:19.533Z,100.00
2023-03-04T00:09:49.492Z,100.00
2023-03-04T00:12:19.023Z,100.00
2023-03-04T00:14:48.572Z,100.00
2023-03-04T00:17:20.741Z,100.00
2023-03-04T00:19:50.254Z,100.00
2023-03-04T00:22:19.505Z,100.00
2023-03-04T00:24:49.190Z,100.00
2023-03-04T00:27:18.796Z,100.00
2023-03-04T00:29:48.129Z,100.00
2023-03-04T00:32:20.348Z,100.00
2023-03-04T00:34:52.453Z,100.00
2023-03-04T00:37:21.888Z,100.00
2023-03-04T00:39:51.124Z,100.00
2023-03-04T00:42:20.467Z,100.00
2023-03-04T00:44:49.824Z,100.00
2023-03-04T00:47:21.792Z,100.00
2023-03-04T00:49:51.162Z,100.00
2023-03-04T00:52:20.528Z,100.00
2023-03-04T00:54:49.884Z,100.00
2023-03-04T00:57:19.338Z,100.00
2023-03-04T00:59:51.467Z,100.00
2023-03-04T01:02:23.575Z,100.00
2023-03-04T01:04:55.335Z,100.00
2023-03-04T01:07:24.777Z,100.00
2023-03-04T01:09:54.144Z,100.00
2023-03-04T01:12:23.415Z,100.00
2023-03-04T01:14:52.742Z,100.00
2023-03-04T01:17:27.131Z,100.00
2023-03-04T01:19:56.552Z,100.00
2023-03-04T01:22:28.080Z,100.00
2023-03-04T01:25:00.605Z,100.00
2023-03-04T01:27:30.114Z,100.00
2023-03-04T01:29:59.473Z,100.00
2023-03-04T01:32:31.555Z,100.00
2023-03-04T01:35:03.299Z,100.00
2023-03-04T01:37:34.115Z,100.00
2023-03-04T01:40:03.627Z,100.00
2023-03-04T01:42:39.196Z,100.00
2023-03-04T01:45:12.699Z,100.00
2023-03-04T01:47:51.624Z,100.00
2023-03-04T01:50:25.425Z,100.00
2023-03-04T01:52:54.864Z,100.00
2023-03-04T01:55:26.011Z,100.00
2023-03-04T01:57:57.489Z,100.00
2023-03-04T02:00:31.370Z,100.00
2023-03-04T02:03:08.568Z,100.00
2023-03-04T02:05:40.036Z,100.00
2023-03-04T02:08:11.106Z,100.00
2023-03-04T02:10:41.019Z,100.00
2023-03-04T02:13:10.391Z,100.00
2023-03-04T02:15:39.847Z,100.00
2023-03-04T02:18:18.156Z,100.00
2023-03-04T02:20:55.527Z,100.00
2023-03-04T02:23:33.144Z,100.00
2023-03-04T02:26:18.022Z,100.00
2023-03-04T02:28:48.085Z,100.00
2023-03-04T02:31:26.645Z,100.00
2023-03-04T02:33:58.399Z,100.00
2023-03-04T02:36:29.143Z,100.00
2023-03-04T02:39:03.976Z,100.00
2023-03-04T02:41:36.523Z,100.00
2023-03-04T02:44:06.220Z,100.00
2023-03-04T02:46:35.814Z,100.00
2023-03-04T02:49:05.275Z,100.00
2023-03-04T02:51:34.925Z,100.00
2023-03-04T02:54:04.659Z,100.00
2023-03-04T02:56:37.079Z,100.00
2023-03-04T02:59:06.889Z,100.00
2023-03-04T03:01:36.466Z,100.00
2023-03-04T03:04:06.150Z,100.00
2023-03-04T03:06:36.166Z,100.00
2023-03-04T03:09:06.215Z,100.00
2023-03-04T03:11:38.760Z,100.00
2023-03-04T03:14:09.809Z,100.00
2023-03-04T03:16:39.659Z,100.00
2023-03-04T03:19:09.260Z,100.00
2023-03-04T03:21:38.629Z,100.00
2023-03-04T03:24:08.708Z,100.00
2023-03-04T03:26:41.092Z,100.00
2023-03-04T03:29:10.643Z,100.00
2023-03-04T03:31:40.167Z,100.00
2023-03-04T03:34:09.506Z,100.00
2023-03-04T03:36:38.913Z,100.00
2023-03-04T03:39:08.620Z,100.00
2023-03-04T03:41:40.695Z,100.00
2023-03-04T03:44:10.308Z,100.00
2023-03-04T03:46:39.686Z,100.00
2023-03-04T03:49:09.304Z,100.00
2023-03-04T03:51:38.738Z,100.00
2023-03-04T03:54:08.239Z,100.00
2023-03-04T03:56:40.220Z,100.00
2023-03-04T03:59:09.898Z,100.00
2023-03-04T04:01:39.552Z,100.00
2023-03-04T04:04:09.001Z,100.00
2023-03-04T04:06:38.364Z,100.00
2023-03-04T04:09:07.818Z,100.00
2023-03-04T04:11:54.511Z,100.00
2023-03-04T04:14:24.486Z,100.00
2023-03-04T04:22:16.273Z,100.00
2023-03-04T04:24:46.843Z,100.00
2023-03-04T04:27:19.619Z,100.00
2023-03-04T04:29:49.358Z,100.00
2023-03-04T04:32:19.203Z,100.00
2023-03-04T04:34:48.940Z,100.00
2023-03-04T04:48:29.237Z,100.00
2023-03-04T04:53:43.705Z,100.00
2023-03-04T05:01:30.901Z,100.00
2023-03-04T05:06:44.206Z,100.00
2023-03-04T05:09:13.592Z,100.00
2023-03-04T05:11:43.005Z,100.00
2023-03-04T05:14:12.416Z,100.00
2023-03-04T05:16:41.746Z,100.00
2023-03-04T05:19:11.328Z,100.00
2023-03-04T05:21:40.775Z,100.00
2023-03-04T05:24:13.029Z,100.00
2023-03-04T05:26:42.390Z,100.00
2023-03-04T05:29:11.713Z,100.00
2023-03-04T05:31:41.339Z,100.00
2023-03-04T05:34:10.806Z,100.00
2023-03-04T05:37:03.820Z,100.00
2023-03-04T05:39:36.673Z,100.00
2023-03-04T05:42:06.826Z,100.00
2023-03-04T05:44:36.740Z,100.00
2023-03-04T05:47:07.134Z,100.00
2023-03-04T05:49:36.526Z,100.00
2023-03-04T05:52:06.197Z,100.00
2023-03-04T05:54:38.388Z,100.00
2023-03-04T05:57:07.839Z,100.00
2023-03-04T05:59:37.275Z,100.00
2023-03-04T06:02:06.747Z,100.00
2023-03-04T06:04:36.682Z,100.00
2023-03-04T06:12:40.434Z,100.00
2023-03-04T06:15:13.809Z,100.00
2023-03-04T06:17:46.782Z,100.00
2023-03-04T06:20:16.319Z,100.00
2023-03-04T06:22:45.838Z,100.00
2023-03-04T06:25:15.680Z,100.00
2023-03-04T06:27:49.775Z,100.00
2023-03-04T06:30:20.914Z,100.00
2023-03-04T06:32:51.064Z,100.00
2023-03-04T06:35:20.937Z,100.00
2023-03-04T06:37:50.356Z,100.00
2023-03-04T06:40:19.873Z,100.00
2023-03-04T06:42:51.810Z,100.00
2023-03-04T06:45:21.491Z,100.00
2023-03-04T06:47:51.024Z,100.00
2023-03-04T06:50:20.600Z,100.00
2023-03-04T06:52:50.523Z,100.00
2023-03-04T06:55:21.265Z,100.00
2023-03-04T06:57:54.371Z,100.00
2023-03-04T07:00:25.483Z,100.00
2023-03-04T07:02:55.507Z,100.00
2023-03-04T07:05:25.203Z,100.00
2023-03-04T07:07:54.948Z,100.00
2023-03-04T07:10:25.000Z,100.00
2023-03-04T07:13:08.730Z,100.00
2023-03-04T07:18:13.879Z,100.00
2023-03-04T07:20:43.654Z,100.00
2023-03-04T07:23:13.261Z,100.00
2023-03-04T07:25:42.633Z,100.00
2023-03-04T07:30:57.326Z,100.00
2023-03-04T07:33:26.579Z,100.00
2023-03-04T07:36:01.876Z,100.00
2023-03-04T07:38:31.279Z,100.00
2023-03-04T07:41:00.852Z,100.00
2023-03-04T07:43:30.412Z,100.00
2023-03-04T07:46:05.798Z,100.00
2023-03-04T07:48:35.340Z,100.00
2023-03-04T07:51:10.685Z,100.00
2023-03-04T07:53:42.389Z,100.00
2023-03-04T07:56:15.308Z,99.76
2023-03-04T07:58:44.809Z,99.40
2023-03-04T08:01:19.058Z,99.34
2023-03-04T08:03:48.858Z,98.78
2023-03-04T08:06:20.057Z,98.53
2023-03-04T08:08:50.175Z,98.77
2023-03-04T08:11:22.379Z,98.06
2023-03-04T08:13:54.165Z,97.40
2023-03-04T08:16:27.227Z,96.96
2023-03-04T08:18:58.710Z,96.76
2023-03-04T08:21:29.622Z,96.29
2023-03-04T08:24:02.585Z,95.95
2023-03-04T08:26:34.549Z,95.75
2023-03-04T08:29:06.157Z,96.00
2023-03-04T08:31:39.661Z,95.55
2023-03-04T08:34:11.121Z,96.41
2023-03-04T08:36:40.630Z,96.22
2023-03-04T08:39:09.947Z,95.85
2023-03-04T08:41:39.263Z,95.74
2023-03-04T08:44:10.348Z,95.14
2023-03-04T08:46:44.774Z,95.40
2023-03-04T08:49:14.567Z,95.80
2023-03-04T08:51:45.390Z,95.25
2023-03-04T08:54:14.999Z,95.04
2023-03-04T08:56:44.475Z,94.69
2023-03-04T08:59:13.919Z,95.02
2023-03-04T09:01:45.962Z,95.05
2023-03-04T09:04:15.671Z,94.85
2023-03-04T09:06:45.080Z,94.90
2023-03-04T09:09:14.437Z,95.07
2023-03-04T09:11:43.776Z,94.28
2023-03-04T09:14:13.150Z,93.46
2023-03-04T09:16:42.573Z,93.91
2023-03-04T09:19:14.877Z,93.46
2023-03-04T09:21:44.220Z,93.52
2023-03-04T09:24:13.528Z,92.98
2023-03-04T09:26:42.857Z,92.89
2023-03-04T09:29:12.986Z,93.12
2023-03-04T09:31:42.368Z,92.90
2023-03-04T09:34:14.428Z,92.76
2023-03-04T09:36:43.776Z,91.92
2023-03-04T09:39:13.132Z,92.18
2023-03-04T09:41:44.997Z,91.74
2023-03-04T09:44:24.895Z,91.38
2023-03-04T09:46:55.616Z,92.11
2023-03-04T09:49:28.794Z,91.58
2023-03-04T09:52:21.465Z,92.01
2023-03-04T09:55:04.889Z,92.23
2023-03-04T09:57:46.947Z,92.01
2023-03-04T10:00:20.649Z,92.28
2023-03-04T10:03:06.955Z,91.68
2023-03-04T10:05:44.258Z,91.45
2023-03-04T10:08:30.318Z,90.40
2023-03-04T10:11:02.258Z,91.20
2023-03-04T10:13:38.265Z,90.44
2023-03-04T10:16:15.296Z,90.74
2023-03-04T10:18:49.819Z,90.62
2023-03-04T10:21:30.515Z,90.31
2023-03-04T10:23:59.986Z,90.30
2023-03-04T10:26:33.267Z,89.99
2023-03-04T10:29:07.178Z,90.24
2023-03-04T10:31:39.156Z,89.97
2023-03-04T10:34:09.412Z,90.00
2023-03-04T10:36:56.238Z,89.60
2023-03-04T10:39:30.478Z,89.21
2023-03-04T10:42:02.590Z,88.91
2023-03-04T10:44:34.664Z,88.37
2023-03-04T10:47:04.694Z,88.36
2023-03-04T10:49:34.473Z,88.59
2023-03-04T10:52:21.217Z,88.29
2023-03-04T10:54:52.991Z,87.98
2023-03-04T10:57:25.057Z,87.71
2023-03-04T10:59:59.269Z,87.48
2023-03-04T11:02:31.165Z,87.36
2023-03-04T11:05:18.528Z,87.15
2023-03-04T11:07:56.198Z,86.24
2023-03-04T11:10:28.627Z,86.24
2023-03-04T11:13:03.822Z,86.17
2023-03-04T11:15:52.324Z,86.15
2023-03-04T11:18:27.230Z,86.34
2023-03-04T11:20:57.086Z,86.21
2023-03-04T11:23:38.466Z,86.23
2023-03-04T11:26:13.951Z,86.83
2023-03-04T11:28:47.971Z,86.82
2023-03-04T11:31:21.290Z,86.19
2023-03-04T11:33:56.408Z,86.48
2023-03-04T11:36:37.531Z,86.66
2023-03-04T11:39:19.781Z,87.01
2023-03-04T11:41:56.046Z,87.22
2023-03-04T11:44:25.623Z,86.63
2023-03-04T11:47:06.134Z,86.51
2023-03-04T11:50:03.618Z,85.54
2023-03-04T11:53:03.178Z,84.57
2023-03-04T11:55:45.601Z,84.35
2023-03-04T11:58:40.879Z,84.54
2023-03-04T12:01:13.080Z,83.57
2023-03-04T12:04:09.905Z,82.99
2023-03-04T12:06:49.182Z,82.85
2023-03-04T12:09:33.460Z,82.76
2023-03-04T12:12:25.465Z,82.82
2023-03-04T12:15:06.973Z,82.55
2023-03-04T12:17:51.007Z,82.39
2023-03-04T12:20:38.822Z,82.64
2023-03-04T12:23:19.595Z,82.58
2023-03-04T12:25:57.974Z,82.46
2023-03-04T12:28:52.169Z,82.27
2023-03-04T12:31:40.233Z,82.38
2023-03-04T12:34:40.580Z,81.92
2023-03-04T12:37:38.927Z,82.20
2023-03-04T12:40:23.934Z,82.66
2023-03-04T12:43:08.144Z,82.83
2023-03-04T12:45:46.804Z,82.82
2023-03-04T12:48:29.465Z,82.48
2023-03-04T12:51:11.745Z,83.01
2023-03-04T12:53:49.618Z,82.77
2023-03-04T12:56:27.604Z,83.37
2023-03-04T12:58:58.390Z,83.22
2023-03-04T13:01:35.087Z,82.95
2023-03-04T13:04:12.273Z,83.62
2023-03-04T13:06:49.144Z,84.55
2023-03-04T13:09:27.314Z,84.09
2023-03-04T13:12:04.867Z,84.48
2023-03-04T13:14:36.184Z,84.22
2023-03-04T13:17:43.457Z,84.38
2023-03-04T13:20:27.800Z,84.32
2023-03-04T13:22:59.507Z,84.23
2023-03-04T13:25:35.396Z,84.33
2023-03-04T13:28:24.689Z,84.56
2023-03-04T13:31:15.282Z,83.93
2023-03-04T13:34:08.515Z,83.20
2023-03-04T13:37:02.707Z,83.97
2023-03-04T13:39:39.613Z,84.06
2023-03-04T13:42:38.874Z,83.62
2023-03-04T13:45:32.364Z,83.69
2023-03-04T13:48:02.655Z,83.39
2023-03-04T13:50:39.623Z,83.67
2023-03-04T13:53:44.292Z,83.21
2023-03-04T13:56:37.570Z,83.22
2023-03-04T13:59:15.907Z,83.14
2023-03-04T14:02:08.430Z,83.03
2023-03-04T14:04:40.221Z,81.99
2023-03-04T14:07:30.604Z,81.67
2023-03-04T14:10:04.829Z,81.36
2023-03-04T14:12:37.416Z,80.87
2023-03-04T14:15:09.491Z,79.94
2023-03-04T14:17:39.995Z,79.45
2023-03-04T14:20:27.859Z,78.78
2023-03-04T14:23:00.377Z,78.35
2023-03-04T14:25:31.314Z,77.70
2023-03-04T14:28:12.375Z,77.91
2023-03-04T14:30:44.470Z,77.47
2023-03-04T14:33:20.758Z,76.56
2023-03-04T14:35:51.991Z,76.94
2023-03-04T14:38:29.864Z,76.21
2023-03-04T14:41:05.405Z,76.11
2023-03-04T14:43:39.426Z,76.30
2023-03-04T14:46:15.171Z,75.29
2023-03-04T14:48:50.255Z,75.69
2023-03-04T14:51:32.477Z,76.10
2023-03-04T14:54:04.592Z,76.27
2023-03-04T14:56:40.390Z,76.15
2023-03-04T14:59:16.710Z,75.33
2023-03-04T15:01:47.393Z,74.98
2023-03-04T15:04:24.820Z,75.81
2023-03-04T15:07:03.380Z,76.24
2023-03-04T15:09:40.959Z,75.72
2023-03-04T15:12:14.774Z,75.76
2023-03-04T15:15:01.701Z,75.62
2023-03-04T15:17:45.536Z,75.47
2023-03-04T15:20:28.460Z,75.86
2023-03-04T15:23:07.345Z,76.25
2023-03-04T15:25:39.358Z,76.36
2023-03-04T15:28:17.237Z,76.12
2023-03-04T15:30:46.575Z,76.46
2023-03-04T15:33:16.349Z,76.84
2023-03-04T15:35:53.980Z,76.53
2023-03-04T15:38:23.795Z,76.44
2023-03-04T15:40:58.314Z,75.64
2023-03-04T15:43:27.707Z,76.13
2023-03-04T15:45:57.102Z,76.45
2023-03-04T15:48:26.578Z,76.71
2023-03-04T15:50:59.298Z,77.03
2023-03-04T15:53:35.066Z,76.59
2023-03-04T15:56:10.471Z,76.95
2023-03-04T15:58:39.805Z,76.90
2023-03-04T16:01:09.217Z,76.89
2023-03-04T16:03:38.527Z,76.99
2023-03-04T16:06:12.429Z,77.45
2023-03-04T16:08:43.495Z,76.92
2023-03-04T16:11:18.514Z,77.49
2023-03-04T16:13:47.929Z,77.00
2023-03-04T16:16:17.572Z,76.90
2023-03-04T16:18:47.666Z,76.39
2023-03-04T16:21:19.990Z,76.84
2023-03-04T16:23:52.291Z,76.64
2023-03-04T16:26:25.676Z,75.56
2023-03-04T16:28:55.818Z,76.46
2023-03-04T16:31:25.402Z,76.08
2023-03-04T16:33:54.626Z,76.50
2023-03-04T16:36:27.136Z,75.88
2023-03-04T16:38:58.531Z,76.22
2023-03-04T16:41:32.922Z,76.45
2023-03-04T16:44:03.176Z,76.08
2023-03-04T16:46:32.565Z,76.23
2023-03-04T16:49:01.802Z,75.94
2023-03-04T16:51:38.818Z,76.06
2023-03-04T16:54:09.885Z,75.36
2023-03-04T16:56:41.682Z,75.68
2023-03-04T16:59:16.560Z,75.89
2023-03-04T17:01:46.471Z,75.29
2023-03-04T17:04:15.903Z,75.20
2023-03-04T17:06:45.098Z,75.64
2023-03-04T17:09:14.303Z,75.19
2023-03-04T17:11:46.715Z,76.03
2023-03-04T17:14:16.087Z,76.59
2023-03-04T17:16:45.294Z,76.11
2023-03-04T17:19:14.540Z,76.82
2023-03-04T17:21:43.860Z,76.16
2023-03-04T17:24:13.087Z,76.84
2023-03-04T17:26:42.701Z,76.23
2023-03-04T17:29:14.543Z,76.75
2023-03-04T17:31:43.792Z,76.83
2023-03-04T17:34:13.430Z,77.28
2023-03-04T17:36:42.938Z,78.19
2023-03-04T17:39:12.187Z,78.17
2023-03-04T17:41:41.504Z,77.95
2023-03-04T17:44:10.730Z,78.68
2023-03-04T17:46:42.558Z,78.21
2023-03-04T17:49:14.331Z,78.28
2023-03-04T17:51:44.005Z,77.99
2023-03-04T17:54:13.926Z,78.04
2023-03-04T17:56:44.448Z,77.79
2023-03-04T17:59:16.386Z,77.58
2023-03-04T18:01:52.264Z,78.52
2023-03-04T18:04:22.965Z,78.38
2023-03-04T18:06:52.321Z,78.26
2023-03-04T18:09:21.575Z,78.32
2023-03-04T18:11:51.079Z,78.15
2023-03-04T18:14:20.302Z,77.77
2023-03-04T18:16:52.118Z,78.55
2023-03-04T18:19:21.387Z,78.49
2023-03-04T18:21:50.610Z,77.83
2023-03-04T18:24:19.885Z,77.84
2023-03-04T18:26:49.071Z,77.71
2023-03-04T18:29:18.378Z,78.00
2023-03-04T18:31:47.657Z,78.10
2023-03-04T18:34:19.482Z,77.59
2023-03-04T18:36:50.451Z,78.15
2023-03-04T18:39:19.664Z,78.24
2023-03-04T18:41:48.903Z,77.63
2023-03-04T18:44:18.244Z,77.68
2023-03-04T18:46:50.435Z,77.36
2023-03-04T18:49:23.329Z,77.51
2023-03-04T18:51:52.776Z,77.21
2023-03-04T18:54:22.445Z,77.28
2023-03-04T18:56:55.604Z,77.93
2023-03-04T18:59:31.226Z,77.62
2023-03-04T19:02:03.770Z,77.63
2023-03-04T19:04:35.641Z,77.40
2023-03-04T19:07:04.915Z,77.15
2023-03-04T19:09:34.295Z,77.68
2023-03-04T19:12:06.461Z,77.09
2023-03-04T19:14:35.854Z,76.61
2023-03-04T19:17:05.071Z,76.77
2023-03-04T19:19:36.911Z,76.09
2023-03-04T19:22:06.940Z,75.99
2023-03-04T19:24:36.426Z,75.82
2023-03-04T19:27:05.688Z,75.61
2023-03-04T19:29:34.959Z,75.26
2023-03-04T19:32:04.216Z,74.64
2023-03-04T19:34:33.439Z,75.01
2023-03-04T19:37:05.231Z,74.46
2023-03-04T19:39:34.466Z,74.60
2023-03-04T19:42:03.722Z,74.48
2023-03-04T19:44:32.915Z,74.42
2023-03-04T19:47:02.209Z,74.58
2023-03-04T19:49:31.444Z,74.19
2023-03-04T19:52:00.689Z,74.77
2023-03-04T19:54:33.167Z,73.99
2023-03-04T19:57:02.396Z,74.10
2023-03-04T19:59:31.702Z,74.40
2023-03-04T20:02:01.360Z,73.92
2023-03-04T20:04:30.634Z,74.24
2023-03-04T20:06:59.985Z,74.09
2023-03-04T20:09:29.367Z,74.19
2023-03-04T20:12:01.158Z,74.30
2023-03-04T20:14:30.656Z,73.54
2023-03-04T20:17:02.481Z,74.09
2023-03-04T20:19:32.284Z,73.99
2023-03-04T20:22:01.544Z,74.18
2023-03-04T20:24:30.868Z,74.48
2023-03-04T20:27:02.729Z,74.21
2023-03-04T20:29:31.950Z,74.30
2023-03-04T20:32:01.444Z,74.18
2023-03-04T20:34:30.751Z,73.53
2023-03-04T20:37:00.386Z,74.15
2023-03-04T20:39:30.321Z,73.04
2023-03-04T20:42:03.159Z,73.12
2023-03-04T20:44:32.390Z,73.14
2023-03-04T20:47:03.121Z,73.25
2023-03-04T20:49:32.622Z,72.90
2023-03-04T20:52:06.540Z,72.98
2023-03-04T20:54:37.285Z,73.07
2023-03-04T20:57:11.022Z,72.79
2023-03-04T20:59:41.550Z,73.16
2023-03-04T21:02:13.978Z,73.32
2023-03-04T21:04:44.042Z,73.68
2023-03-04T21:07:14.284Z,73.57
2023-03-04T21:09:44.036Z,73.39
2023-03-04T21:12:15.940Z,73.61
2023-03-04T21:14:45.220Z,73.39
2023-03-04T21:17:14.991Z,73.72
2023-03-04T21:19:45.874Z,73.93
2023-03-04T21:22:18.986Z,74.20
2023-03-04T21:24:48.898Z,74.26
2023-03-04T21:27:20.711Z,73.92
2023-03-04T21:29:49.989Z,73.65
2023-03-04T21:32:29.535Z,73.39
2023-03-04T21:34:58.886Z,73.38
2023-03-04T21:37:28.962Z,74.18
2023-03-04T21:40:01.180Z,73.05
2023-03-04T21:42:33.002Z,73.21
2023-03-04T21:45:02.386Z,72.92
2023-03-04T21:47:31.706Z,72.75
2023-03-04T21:50:00.942Z,72.74
2023-03-04T21:52:34.140Z,72.98
2023-03-04T21:55:03.397Z,72.96
2023-03-04T21:57:35.843Z,73.34
2023-03-04T22:00:06.567Z,73.08
2023-03-04T22:02:35.893Z,73.08
2023-03-04T22:05:05.134Z,72.91
2023-03-04T22:07:34.787Z,72.48
2023-03-04T22:10:06.621Z,72.57
2023-03-04T22:12:38.498Z,72.57
2023-03-04T22:15:09.281Z,72.78
2023-03-04T22:17:38.538Z,72.04
2023-03-04T22:20:09.788Z,72.16
2023-03-04T22:22:39.065Z,72.02
2023-03-04T22:25:09.206Z,72.16
2023-03-04T22:27:41.060Z,72.63
2023-03-04T22:30:12.735Z,72.33
2023-03-04T22:32:41.986Z,72.38
2023-03-04T22:35:12.911Z,72.64
2023-03-04T22:37:42.447Z,73.27
2023-03-04T22:40:15.265Z,73.54
2023-03-04T22:42:48.874Z,73.49
2023-03-04T22:45:21.568Z,73.75
2023-03-04T22:47:54.874Z,74.03
2023-03-04T22:50:25.146Z,75.07
2023-03-04T22:52:54.526Z,74.99
2023-03-04T22:55:25.417Z,74.91
2023-03-04T22:57:57.305Z,75.80
2023-03-04T23:00:30.541Z,76.21
2023-03-04T23:03:00.483Z,76.93
2023-03-04T23:05:30.302Z,76.90
2023-03-04T23:07:59.698Z,77.13
2023-03-04T23:10:29.162Z,77.73
2023-03-04T23:13:01.265Z,77.43
2023-03-04T23:15:30.595Z,78.28
2023-03-04T23:18:01.576Z,78.58
2023-03-04T23:20:30.904Z,79.14
2023-03-04T23:23:02.413Z,79.46
2023-03-04T23:25:31.755Z,79.54
2023-03-04T23:28:03.688Z,79.98
2023-03-04T23:30:35.340Z,79.76
2023-03-04T23:33:06.929Z,79.55
2023-03-04T23:35:36.412Z,80.94
2023-03-04T23:38:08.119Z,81.16
2023-03-04T23:40:39.732Z,81.19
2023-03-04T23:43:11.550Z,81.26
2023-03-04T23:45:41.160Z,80.68
2023-03-04T23:48:10.415Z,80.25
2023-03-04T23:50:39.927Z,80.06
2023-03-04T23:53:10.426Z,81.13
2023-03-04T23:55:39.637Z,81.52
2023-03-04T23:58:11.502Z,81.22
